createdAt,value
2022-08-16T00:01:23.676Z,3.57
2022-08-16T00:03:54.935Z,3.47
2022-08-16T00:06:23.352Z,3.87
2022-08-16T00:08:52.442Z,3.23
2022-08-16T00:11:21.745Z,3.60
2022-08-16T00:13:53.526Z,3.80
2022-08-16T00:17:06.291Z,3.83
2022-08-16T00:19:13.915Z,3.73
2022-08-16T00:21:43.194Z,3.70
2022-08-16T00:24:34.137Z,3.30
2022-08-16T00:27:03.441Z,3.27
2022-08-16T00:29:32.073Z,4.07
2022-08-16T00:32:05.620Z,4.17
2022-08-16T00:34:52.283Z,3.43
2022-08-16T00:37:24.134Z,3.10
2022-08-16T00:39:58.465Z,3.43
2022-08-16T00:42:31.457Z,3.80
2022-08-16T00:45:06.427Z,3.13
2022-08-16T00:47:49.135Z,3.73
2022-08-16T00:50:21.620Z,3.70
2022-08-16T00:53:06.313Z,3.90
2022-08-16T00:55:37.793Z,3.43
2022-08-16T00:58:13.100Z,3.87
2022-08-16T01:00:54.323Z,3.90
2022-08-16T01:03:30.397Z,4.00
2022-08-16T01:06:39.984Z,4.10
2022-08-16T01:08:55.920Z,4.20
2022-08-16T01:11:29.668Z,3.40
2022-08-16T01:14:07.183Z,4.50
2022-08-16T01:16:38.151Z,4.13
2022-08-16T01:19:17.413Z,3.97
2022-08-16T01:21:54.912Z,3.90
2022-08-16T01:24:51.866Z,4.43
2022-08-16T01:27:23.883Z,4.23
2022-08-16T01:30:00.306Z,4.10
2022-08-16T01:32:33.426Z,3.90
2022-08-16T01:35:09.159Z,4.30
2022-08-16T01:37:54.028Z,4.10
2022-08-16T01:40:27.460Z,4.40
2022-08-16T01:42:56.748Z,4.90
2022-08-16T01:45:39.665Z,4.50
2022-08-16T01:48:19.259Z,4.50
2022-08-16T01:51:09.406Z,4.60
2022-08-16T01:53:40.679Z,4.60
2022-08-16T01:56:23.529Z,4.33
2022-08-16T01:58:54.589Z,4.00
2022-08-16T02:01:22.746Z,3.90
2022-08-16T02:03:51.912Z,4.20
2022-08-16T02:06:34.769Z,4.17
2022-08-16T02:09:11.807Z,3.67
2022-08-16T02:11:48.679Z,4.10
2022-08-16T02:14:26.251Z,4.63
2022-08-16T02:16:56.258Z,4.00
2022-08-16T02:19:59.381Z,4.77
2022-08-16T02:22:33.494Z,3.97
2022-08-16T02:25:02.296Z,4.63
2022-08-16T02:27:31.937Z,4.10
2022-08-16T02:30:05.446Z,3.57
2022-08-16T02:32:49.031Z,3.73
2022-08-16T02:35:23.110Z,4.07
2022-08-16T02:37:52.860Z,4.17
2022-08-16T02:40:22.398Z,4.30
2022-08-16T02:42:53.276Z,4.30
2022-08-16T02:45:24.659Z,5.03
2022-08-16T02:48:01.449Z,5.07
2022-08-16T02:51:03.159Z,3.63
2022-08-16T02:53:33.496Z,4.17
2022-08-16T02:56:01.544Z,5.30
2022-08-16T02:58:33.669Z,4.20
2022-08-16T03:01:05.139Z,3.97
2022-08-16T03:04:39.241Z,3.93
2022-08-16T03:06:39.069Z,3.70
2022-08-16T03:09:13.768Z,4.20
2022-08-16T03:11:43.160Z,4.50
2022-08-16T03:14:13.766Z,3.83
2022-08-16T03:17:00.133Z,3.73
2022-08-16T03:19:47.098Z,4.37
2022-08-16T03:22:19.458Z,4.07
2022-08-16T03:25:01.256Z,4.60
2022-08-16T03:27:30.826Z,3.93
2022-08-16T03:30:15.235Z,4.17
2022-08-16T03:32:51.403Z,4.40
2022-08-16T03:35:23.487Z,4.63
2022-08-16T03:38:02.805Z,4.37
2022-08-16T03:40:34.595Z,4.03
2022-08-16T03:43:20.080Z,3.80
2022-08-16T03:45:53.753Z,4.00
2022-08-16T03:48:36.729Z,3.40
2022-08-16T03:51:12.116Z,4.33
2022-08-16T03:53:41.792Z,4.60
2022-08-16T03:56:20.033Z,4.37
2022-08-16T03:58:50.864Z,4.07
2022-08-16T04:01:29.408Z,4.50
2022-08-16T04:03:58.169Z,3.70
2022-08-16T04:06:27.562Z,3.90
2022-08-16T04:08:55.468Z,3.63
2022-08-16T04:11:24.885Z,3.93
2022-08-16T04:14:00.893Z,4.50
2022-08-16T04:16:42.522Z,4.40
2022-08-16T04:19:11.065Z,3.87
2022-08-16T04:21:45.629Z,4.60
2022-08-16T04:24:15.026Z,4.10
2022-08-16T04:26:46.060Z,4.53
2022-08-16T04:29:23.785Z,4.10
2022-08-16T04:31:56.505Z,4.40
2022-08-16T04:34:28.451Z,4.43
2022-08-16T04:36:57.935Z,4.47
2022-08-16T04:39:37.127Z,4.37
2022-08-16T04:42:15.326Z,4.40
2022-08-16T04:44:53.912Z,4.47
2022-08-16T04:47:32.860Z,4.27
2022-08-16T04:50:02.162Z,4.70
2022-08-16T04:52:35.216Z,4.20
2022-08-16T04:55:07.416Z,4.10
2022-08-16T04:57:35.979Z,4.27
2022-08-16T05:00:32.289Z,4.20
2022-08-16T05:03:02.888Z,4.50
2022-08-16T05:05:45.212Z,4.00
2022-08-16T05:08:28.986Z,3.83
2022-08-16T05:11:00.574Z,4.10
2022-08-16T05:13:40.843Z,3.70
2022-08-16T05:16:19.774Z,4.40
2022-08-16T05:18:51.563Z,4.10
2022-08-16T05:21:20.931Z,4.47
2022-08-16T05:23:55.451Z,3.97
2022-08-16T05:26:27.983Z,4.17
2022-08-16T05:28:56.672Z,4.60
2022-08-16T05:31:29.896Z,4.30
2022-08-16T05:34:03.202Z,4.20
2022-08-16T05:36:34.412Z,3.90
2022-08-16T05:39:06.727Z,3.67
2022-08-16T05:41:45.248Z,3.50
2022-08-16T05:44:24.051Z,4.47
2022-08-16T05:46:54.932Z,3.43
2022-08-16T05:49:39.577Z,4.70
2022-08-16T05:52:11.374Z,4.30
2022-08-16T05:54:46.738Z,4.13
2022-08-16T05:57:16.243Z,4.30
2022-08-16T05:59:50.592Z,4.30
2022-08-16T06:02:30.713Z,4.97
2022-08-16T06:05:03.782Z,4.07
2022-08-16T06:07:32.242Z,3.80
2022-08-16T06:10:01.562Z,4.00
2022-08-16T06:12:31.037Z,4.37
2022-08-16T06:15:01.565Z,5.30
2022-08-16T06:17:41.701Z,4.40
2022-08-16T06:20:18.572Z,3.97
2022-08-16T06:22:57.909Z,4.10
2022-08-16T06:25:36.145Z,4.60
2022-08-16T06:28:09.639Z,3.90
2022-08-16T06:30:43.870Z,3.80
2022-08-16T06:33:19.457Z,4.00
2022-08-16T06:35:55.166Z,4.07
2022-08-16T06:38:32.241Z,4.23
2022-08-16T06:41:04.707Z,4.60
2022-08-16T06:43:34.693Z,4.00
2022-08-16T06:46:05.369Z,4.43
2022-08-16T06:48:34.136Z,4.07
2022-08-16T06:51:05.868Z,3.73
2022-08-16T06:53:36.292Z,4.00
2022-08-16T06:56:14.228Z,4.40
2022-08-16T06:58:49.970Z,3.83
2022-08-16T07:01:21.484Z,4.57
2022-08-16T07:03:57.247Z,4.00
2022-08-16T07:06:27.455Z,4.07
2022-08-16T07:08:55.792Z,5.33
2022-08-16T07:11:46.222Z,4.60
2022-08-16T07:14:25.170Z,4.30
2022-08-16T07:16:58.135Z,4.33
2022-08-16T07:20:01.901Z,4.80
2022-08-16T07:22:37.770Z,4.40
2022-08-16T07:25:07.355Z,4.80
2022-08-16T07:27:37.373Z,4.73
2022-08-16T07:30:38.504Z,5.10
2022-08-16T07:32:56.427Z,4.60
2022-08-16T07:35:24.685Z,4.60
2022-08-16T07:37:54.425Z,5.10
2022-08-16T07:40:49.257Z,5.10
2022-08-16T07:43:10.889Z,5.07
2022-08-16T07:45:39.726Z,5.00
2022-08-16T07:48:12.391Z,4.73
2022-08-16T07:50:56.949Z,4.07
2022-08-16T07:53:29.598Z,4.70
2022-08-16T07:56:00.750Z,5.90
2022-08-16T07:58:34.391Z,5.20
2022-08-16T08:01:10.076Z,5.07
2022-08-16T08:03:43.601Z,6.00
2022-08-16T08:06:15.819Z,4.80
2022-08-16T08:08:51.077Z,4.93
2022-08-16T08:11:21.892Z,5.40
2022-08-16T08:13:53.558Z,5.20
2022-08-16T08:16:30.465Z,4.73
2022-08-16T08:19:01.054Z,4.60
2022-08-16T08:21:58.940Z,5.00
2022-08-16T08:24:22.516Z,5.00
2022-08-16T08:27:02.211Z,4.90
2022-08-16T08:29:36.877Z,4.60
2022-08-16T08:32:58.515Z,4.80
2022-08-16T08:35:02.996Z,4.90
2022-08-16T08:37:54.310Z,5.30
2022-08-16T08:40:24.224Z,4.60
2022-08-16T08:43:00.289Z,4.53
2022-08-16T08:45:46.940Z,5.63
2022-08-16T08:48:33.705Z,4.27
2022-08-16T08:51:04.570Z,5.13
2022-08-16T08:53:33.286Z,4.93
2022-08-16T08:56:23.753Z,5.10
2022-08-16T08:58:59.127Z,5.00
2022-08-16T09:01:36.429Z,5.60
2022-08-16T09:04:06.641Z,4.90
2022-08-16T09:06:35.196Z,5.33
2022-08-16T09:09:05.146Z,5.50
2022-08-16T09:11:40.819Z,5.50
2022-08-16T09:14:24.881Z,5.10
2022-08-16T09:17:03.650Z,4.70
2022-08-16T09:19:41.229Z,4.93
2022-08-16T09:22:20.301Z,5.17
2022-08-16T09:24:52.291Z,4.63
2022-08-16T09:27:25.265Z,4.60
2022-08-16T09:30:34.162Z,5.37
2022-08-16T09:33:00.663Z,5.20
2022-08-16T09:35:30.735Z,5.03
2022-08-16T09:38:00.523Z,5.07
2022-08-16T09:40:32.978Z,5.37
2022-08-16T09:43:37.778Z,4.90
2022-08-16T09:46:00.240Z,5.43
2022-08-16T09:48:44.215Z,4.67
2022-08-16T09:51:16.345Z,5.03
2022-08-16T09:53:53.671Z,5.07
2022-08-16T09:56:28.860Z,5.40
2022-08-16T09:59:07.721Z,4.80
2022-08-16T10:01:38.398Z,5.40
2022-08-16T10:04:31.193Z,4.70
2022-08-16T10:12:19.442Z,4.57
2022-08-16T10:14:49.356Z,5.47
2022-08-16T10:17:17.306Z,4.50
2022-08-16T10:19:47.044Z,4.77
2022-08-16T10:22:18.353Z,4.77
2022-08-16T10:24:56.074Z,5.00
2022-08-16T10:27:45.630Z,4.27
2022-08-16T10:30:25.233Z,4.20
2022-08-16T10:32:54.671Z,4.27
2022-08-16T10:35:22.926Z,4.80
2022-08-16T10:37:52.356Z,4.40
2022-08-16T10:40:29.154Z,4.07
2022-08-16T10:43:00.343Z,4.27
2022-08-16T10:45:37.138Z,4.40
2022-08-16T10:48:28.033Z,4.63
2022-08-16T10:50:58.632Z,4.53
2022-08-16T10:53:32.834Z,4.83
2022-08-16T10:56:06.438Z,4.40
2022-08-16T10:58:51.820Z,5.20
2022-08-16T11:01:43.499Z,4.33
2022-08-16T11:05:04.514Z,4.80
2022-08-16T11:09:46.426Z,4.87
2022-08-16T11:12:14.963Z,4.70
2022-08-16T11:17:33.007Z,5.07
2022-08-16T11:20:42.307Z,4.77
2022-08-16T11:22:52.330Z,3.87
2022-08-16T11:28:36.457Z,4.00
2022-08-16T11:31:01.354Z,4.10
2022-08-16T11:36:27.420Z,3.80
2022-08-16T11:39:00.167Z,4.33
2022-08-16T11:41:30.800Z,3.70
2022-08-16T11:44:00.960Z,4.67
2022-08-16T11:46:45.161Z,4.00
2022-08-16T11:49:18.777Z,4.30
2022-08-16T11:51:49.567Z,4.70
2022-08-16T11:54:20.868Z,3.70
2022-08-16T11:56:52.396Z,4.40
2022-08-16T11:59:21.302Z,4.07
2022-08-16T12:01:58.973Z,4.40
2022-08-16T12:04:31.259Z,3.97
2022-08-16T12:06:59.276Z,4.03
2022-08-16T12:09:29.497Z,4.67
2022-08-16T12:12:02.861Z,4.20
2022-08-16T12:14:37.677Z,4.23
2022-08-16T12:17:08.344Z,3.70
2022-08-16T12:19:38.640Z,3.77
2022-08-16T12:22:18.933Z,3.13
2022-08-16T12:24:52.345Z,3.70
2022-08-16T12:27:23.034Z,3.90
2022-08-16T12:29:52.476Z,4.17
2022-08-16T12:32:35.849Z,4.27
2022-08-16T12:35:14.519Z,4.90
2022-08-16T12:37:46.060Z,3.97
2022-08-16T12:40:24.742Z,3.50
2022-08-16T12:42:58.732Z,3.90
2022-08-16T12:45:30.197Z,3.90
2022-08-16T12:48:33.782Z,4.20
2022-08-16T12:51:13.606Z,4.30
2022-08-16T12:53:48.493Z,4.70
2022-08-16T12:56:19.317Z,4.30
2022-08-16T12:58:51.820Z,3.70
2022-08-16T13:01:22.456Z,4.03
2022-08-16T13:03:59.156Z,4.07
2022-08-16T13:06:39.943Z,4.17
2022-08-16T13:09:20.215Z,4.47
2022-08-16T13:11:59.856Z,3.90
2022-08-16T13:14:33.530Z,3.50
2022-08-16T13:17:07.050Z,3.53
2022-08-16T13:20:06.639Z,3.90
2022-08-16T13:22:27.623Z,4.27
2022-08-16T13:24:55.852Z,3.70
2022-08-16T13:28:02.148Z,4.17
2022-08-16T13:30:36.166Z,4.37
2022-08-16T13:33:02.075Z,3.90
2022-08-16T13:35:42.987Z,4.43
2022-08-16T13:38:24.367Z,4.70
2022-08-16T13:40:55.923Z,3.93
2022-08-16T13:43:24.949Z,4.30
2022-08-16T13:45:55.311Z,4.27
2022-08-16T13:48:24.543Z,4.20
2022-08-16T13:50:55.139Z,4.03
2022-08-16T13:53:28.542Z,4.00
2022-08-16T13:55:58.435Z,4.07
2022-08-16T13:58:36.636Z,4.20
2022-08-16T14:01:09.884Z,3.60
2022-08-16T14:03:39.951Z,4.57
2022-08-16T14:06:10.518Z,3.87
2022-08-16T14:08:42.818Z,4.47
2022-08-16T14:11:12.463Z,3.80
2022-08-16T14:13:42.646Z,3.43
2022-08-16T14:16:24.301Z,3.20
2022-08-16T14:18:58.351Z,4.00
2022-08-16T14:21:26.311Z,3.50
2022-08-16T14:23:55.614Z,3.90
2022-08-16T14:26:28.305Z,4.10
2022-08-16T14:28:59.979Z,3.57
2022-08-16T14:31:32.421Z,4.07
2022-08-16T14:34:04.251Z,4.30
2022-08-16T14:36:34.301Z,3.53
2022-08-16T14:39:04.432Z,4.17
2022-08-16T14:41:33.956Z,3.90
2022-08-16T14:44:02.648Z,3.97
2022-08-16T14:46:31.327Z,3.40
2022-08-16T14:48:59.268Z,3.43
2022-08-16T14:51:27.360Z,4.20
2022-08-16T14:53:56.709Z,3.67
2022-08-16T14:56:38.976Z,3.70
2022-08-16T14:59:11.342Z,3.40
2022-08-16T15:01:57.201Z,3.70
2022-08-16T15:04:39.607Z,3.73
2022-08-16T15:07:12.568Z,4.10
2022-08-16T15:10:00.961Z,3.40
2022-08-16T15:12:36.372Z,3.83
2022-08-16T15:15:13.163Z,4.83
2022-08-16T15:17:54.186Z,4.27
2022-08-16T15:20:26.678Z,4.20
2022-08-16T15:22:56.311Z,4.23
2022-08-16T15:25:29.596Z,4.00
2022-08-16T15:28:04.633Z,4.80
2022-08-16T15:30:58.411Z,5.40
2022-08-16T15:33:25.464Z,4.87
2022-08-16T15:35:57.841Z,4.17
2022-08-16T15:38:54.728Z,4.27
2022-08-16T15:41:53.770Z,4.10
2022-08-16T15:44:25.544Z,4.90
2022-08-16T15:46:58.829Z,5.07
2022-08-16T15:49:38.158Z,4.23
2022-08-16T15:52:16.930Z,4.63
2022-08-16T15:54:53.636Z,4.30
2022-08-16T15:57:23.944Z,4.57
2022-08-16T15:59:55.917Z,4.80
2022-08-16T16:02:30.957Z,4.60
2022-08-16T16:05:04.345Z,5.07
2022-08-16T16:07:35.921Z,4.40
2022-08-16T16:10:13.186Z,4.80
2022-08-16T16:12:53.823Z,4.90
2022-08-16T16:15:29.489Z,5.03
2022-08-16T16:17:58.187Z,4.73
2022-08-16T16:20:31.721Z,4.90
2022-08-16T16:23:01.961Z,4.80
2022-08-16T16:25:30.183Z,5.50
2022-08-16T16:28:00.796Z,4.80
2022-08-16T16:30:37.968Z,5.10
2022-08-16T16:33:20.501Z,4.43
2022-08-16T16:35:55.354Z,4.83
2022-08-16T16:38:31.150Z,4.93
2022-08-16T16:41:02.447Z,5.30
2022-08-16T16:43:31.166Z,4.87
2022-08-16T16:46:40.959Z,5.47
2022-08-16T16:48:53.967Z,5.30
2022-08-16T16:51:24.273Z,4.63
2022-08-16T16:53:57.076Z,4.87
2022-08-16T16:56:31.375Z,4.60
2022-08-16T16:59:05.125Z,5.20
2022-08-16T17:02:00.460Z,4.63
2022-08-16T17:04:32.087Z,4.63
2022-08-16T17:07:02.606Z,5.23
2022-08-16T17:09:31.145Z,4.80
2022-08-16T17:11:59.822Z,4.73
2022-08-16T17:14:32.913Z,5.10
2022-08-16T17:17:06.543Z,4.60
2022-08-16T17:19:40.731Z,5.00
2022-08-16T17:22:14.713Z,5.03
2022-08-16T17:24:50.722Z,4.60
2022-08-16T17:27:32.353Z,5.33
2022-08-16T17:30:14.879Z,5.10
2022-08-16T17:32:50.736Z,5.30
2022-08-16T17:35:34.183Z,4.63
2022-08-16T17:38:06.447Z,4.33
2022-08-16T17:40:47.312Z,5.20
2022-08-16T17:43:24.674Z,5.27
2022-08-16T17:45:52.974Z,4.03
2022-08-16T17:48:22.449Z,4.90
2022-08-16T17:50:54.576Z,5.10
2022-08-16T17:53:23.401Z,4.83
2022-08-16T17:55:54.339Z,5.27
2022-08-16T17:58:24.334Z,5.00
2022-08-16T18:00:54.822Z,5.27
2022-08-16T18:04:02.537Z,4.87
2022-08-16T18:06:18.400Z,5.87
2022-08-16T18:08:48.815Z,5.90
2022-08-16T18:11:18.879Z,5.53
2022-08-16T18:13:54.570Z,5.47
2022-08-16T18:16:22.558Z,5.83
2022-08-16T18:18:51.827Z,5.27
2022-08-16T18:21:37.297Z,5.00
2022-08-16T18:24:08.096Z,5.93
2022-08-16T18:26:36.165Z,5.63
2022-08-16T18:29:04.448Z,5.60
2022-08-16T18:31:32.742Z,6.47
2022-08-16T18:34:02.671Z,5.60
2022-08-16T18:36:31.013Z,5.60
2022-08-16T18:39:01.706Z,5.47
2022-08-16T18:41:30.401Z,6.80
2022-08-16T18:44:24.771Z,7.63
2022-08-16T18:46:48.898Z,6.53
2022-08-16T18:49:21.143Z,5.77
2022-08-16T18:51:50.614Z,5.03
2022-08-16T18:54:19.677Z,5.87
2022-08-16T18:56:56.500Z,6.00
2022-08-16T18:59:28.664Z,5.30
2022-08-16T19:02:00.230Z,6.57
2022-08-16T19:04:56.956Z,5.80
2022-08-16T19:07:31.114Z,7.00
2022-08-16T19:10:00.754Z,6.60
2022-08-16T19:12:38.740Z,6.00
2022-08-16T19:15:15.967Z,5.87
2022-08-16T19:17:45.424Z,7.87
2022-08-16T19:20:17.553Z,6.17
2022-08-16T19:25:49.165Z,5.83
2022-08-16T19:28:49.014Z,5.10
2022-08-16T19:31:16.606Z,5.63
2022-08-16T19:33:53.193Z,7.00
2022-08-16T19:36:31.456Z,6.90
2022-08-16T19:39:04.661Z,5.73
2022-08-16T19:41:34.259Z,6.13
2022-08-16T19:44:02.165Z,6.80
2022-08-16T19:46:30.070Z,5.63
2022-08-16T19:48:58.368Z,6.47
2022-08-16T19:51:27.774Z,7.40
2022-08-16T19:53:55.844Z,6.60
2022-08-16T19:56:25.740Z,6.17
2022-08-16T20:01:43.580Z,6.50
2022-08-16T20:04:13.283Z,6.20
2022-08-16T20:06:43.228Z,5.83
2022-08-16T20:09:15.236Z,6.30
2022-08-16T20:11:44.416Z,5.73
2022-08-16T20:14:24.214Z,6.30
2022-08-16T20:16:55.578Z,6.40
2022-08-16T20:19:23.688Z,6.60
2022-08-16T20:21:53.060Z,6.20
2022-08-16T20:24:36.835Z,7.30
2022-08-16T20:27:07.786Z,6.07
2022-08-16T20:29:35.858Z,6.30
2022-08-16T20:32:04.579Z,6.13
2022-08-16T20:34:32.655Z,6.40
2022-08-16T20:37:02.154Z,6.67
2022-08-16T20:39:30.298Z,6.00
2022-08-16T20:41:58.250Z,6.07
2022-08-16T20:44:26.533Z,6.03
2022-08-16T20:46:54.606Z,6.47
2022-08-16T20:49:22.589Z,6.80
2022-08-16T20:51:55.890Z,7.33
2022-08-16T20:54:27.611Z,6.50
2022-08-16T20:56:55.733Z,5.73
2022-08-16T20:59:23.682Z,6.03
2022-08-16T21:01:51.664Z,6.33
2022-08-16T21:04:20.441Z,6.60
2022-08-16T21:06:53.210Z,5.57
2022-08-16T21:09:26.679Z,6.90
2022-08-16T21:11:56.937Z,6.30
2022-08-16T21:14:25.062Z,6.40
2022-08-16T21:16:53.360Z,6.17
2022-08-16T21:19:21.569Z,5.93
2022-08-16T21:21:50.320Z,6.50
2022-08-16T21:24:18.459Z,7.63
2022-08-16T21:26:51.040Z,7.63
2022-08-16T21:29:32.680Z,6.50
2022-08-16T21:32:13.517Z,6.80
2022-08-16T21:34:42.234Z,6.33
2022-08-16T21:37:10.640Z,7.70
2022-08-16T21:39:38.774Z,7.17
2022-08-16T21:42:11.616Z,7.07
2022-08-16T21:44:40.855Z,6.90
2022-08-16T21:47:08.866Z,7.53
2022-08-16T21:49:38.023Z,7.47
2022-08-16T21:52:08.077Z,6.87
2022-08-16T21:54:37.089Z,7.53
2022-08-16T21:57:10.588Z,6.63
2022-08-16T21:59:40.159Z,7.10
2022-08-16T22:02:08.293Z,6.80
2022-08-16T22:04:38.971Z,7.57
2022-08-16T22:07:08.065Z,6.97
2022-08-16T22:09:36.323Z,6.80
2022-08-16T22:12:04.612Z,7.83
2022-08-16T22:14:32.791Z,8.00
2022-08-16T22:17:02.342Z,6.07
2022-08-16T22:19:30.299Z,7.27
2022-08-16T22:21:58.232Z,7.40
2022-08-16T22:24:26.140Z,7.10
2022-08-16T22:26:54.051Z,7.20
2022-08-16T22:29:21.985Z,6.50
2022-08-16T22:31:50.023Z,6.57
2022-08-16T22:34:19.430Z,6.73
2022-08-16T22:36:47.376Z,7.17
2022-08-16T22:39:15.955Z,7.00
2022-08-16T22:41:45.845Z,6.90
2022-08-16T22:44:14.212Z,6.83
2022-08-16T22:46:42.296Z,7.37
2022-08-16T22:49:10.851Z,7.23
2022-08-16T22:51:41.260Z,6.47
2022-08-16T22:54:45.764Z,8.13
2022-08-16T22:56:57.681Z,8.03
2022-08-16T22:59:26.100Z,6.47
2022-08-16T23:01:54.490Z,8.60
2022-08-16T23:04:22.673Z,8.27
2022-08-16T23:06:52.183Z,8.87
2022-08-16T23:09:20.202Z,8.27
2022-08-16T23:11:48.242Z,8.93
2022-08-16T23:14:16.555Z,7.93
2022-08-16T23:16:47.111Z,8.17
2022-08-16T23:19:18.989Z,8.47
2022-08-16T23:21:48.846Z,7.70
2022-08-16T23:24:20.464Z,7.47
2022-08-16T23:26:49.458Z,7.77
2022-08-16T23:29:24.715Z,7.80
2022-08-16T23:31:58.846Z,8.00
2022-08-16T23:34:27.758Z,9.17
2022-08-16T23:36:55.799Z,8.47
2022-08-16T23:39:26.021Z,7.83
2022-08-16T23:41:54.081Z,8.17
2022-08-16T23:44:41.948Z,7.30
2022-08-16T23:47:10.269Z,7.60
2022-08-16T23:49:58.705Z,7.70
2022-08-16T23:52:53.335Z,8.13
2022-08-16T23:55:17.111Z,8.63
2022-08-16T23:57:47.805Z,8.10
